sensor_id;sensor_type;location;lat;lon;timestamp;pressure;altitude;pressure_sealevel;temperature;humidity
49341;BME280;35209;51.050;13.678;2024-03-08T00:02:53;149090.06;;;1.68;78.44
49341;BME280;35209;51.050;13.678;2024-03-08T00:07:55;149101.59;;;1.72;79.08
49341;BME280;35209;51.050;13.678;2024-03-08T00:12:57;149078.50;;;1.63;79.06
49341;BME280;35209;51.050;13.678;2024-03-08T00:17:59;148973.44;;;1.21;81.15
49341;BME280;35209;51.050;13.678;2024-03-08T00:23:01;148927.31;;;1.03;82.47
49341;BME280;35209;51.050;13.678;2024-03-08T00:28:03;148882.47;;;0.85;83.51
49341;BME280;35209;51.050;13.678;2024-03-08T00:33:06;148882.47;;;0.85;84.10
49341;BME280;35209;51.050;13.678;2024-03-08T00:38:08;148902.97;;;0.93;83.80
49341;BME280;35209;51.050;13.678;2024-03-08T00:43:10;148890.13;;;0.88;83.52
49341;BME280;35209;51.050;13.678;2024-03-08T00:48:11;148818.41;;;0.60;85.00
49341;BME280;35209;51.050;13.678;2024-03-08T00:53:13;148748.00;;;0.32;87.19
49341;BME280;35209;51.050;13.678;2024-03-08T00:58:15;148813.31;;;0.58;86.47
49341;BME280;35209;51.050;13.678;2024-03-08T01:03:17;148799.19;;;0.52;86.56
49341;BME280;35209;51.050;13.678;2024-03-08T01:08:19;148732.59;;;0.25;88.29
49341;BME280;35209;51.050;13.678;2024-03-08T01:13:20;148699.31;;;0.12;89.25
49341;BME280;35209;51.050;13.678;2024-03-08T01:18:23;148641.72;;;-0.11;90.84
49341;BME280;35209;51.050;13.678;2024-03-08T01:23:24;148678.81;;;0.04;90.36
49341;BME280;35209;51.050;13.678;2024-03-08T01:28:26;148616.13;;;-0.21;91.58
49341;BME280;35209;51.050;13.678;2024-03-08T01:33:28;148607.16;;;-0.24;92.64
49341;BME280;35209;51.050;13.678;2024-03-08T01:38:30;148632.75;;;-0.14;92.13
49341;BME280;35209;51.050;13.678;2024-03-08T01:43:31;148575.16;;;-0.37;92.57
49341;BME280;35209;51.050;13.678;2024-03-08T01:48:34;148545.72;;;-0.49;94.19
49341;BME280;35209;51.050;13.678;2024-03-08T01:53:36;148568.78;;;-0.40;93.87
49341;BME280;35209;51.050;13.678;2024-03-08T01:58:38;148535.50;;;-0.53;95.21
49341;BME280;35209;51.050;13.678;2024-03-08T02:03:41;148617.41;;;-0.20;92.48
49341;BME280;35209;51.050;13.678;2024-03-08T02:08:46;148541.88;;;-0.51;94.51
49341;BME280;35209;51.050;13.678;2024-03-08T02:13:48;148539.34;;;-0.52;94.36
49341;BME280;35209;51.050;13.678;2024-03-08T02:18:50;148497.09;;;-0.68;95.42
49341;BME280;35209;51.050;13.678;2024-03-08T02:23:52;148483.03;;;-0.74;96.44
49341;BME280;35209;51.050;13.678;2024-03-08T02:28:54;148452.34;;;-0.86;96.22
49341;BME280;35209;51.050;13.678;2024-03-08T02:33:56;148472.81;;;-0.78;97.15
49341;BME280;35209;51.050;13.678;2024-03-08T02:38:58;148458.75;;;-0.84;97.48
49341;BME280;35209;51.050;13.678;2024-03-08T02:44:00;148454.88;;;-0.85;97.64
49341;BME280;35209;51.050;13.678;2024-03-08T02:49:01;148437.00;;;-0.92;98.33
49341;BME280;35209;51.050;13.678;2024-03-08T02:54:03;148415.25;;;-1.01;98.34
49341;BME280;35209;51.050;13.678;2024-03-08T02:59:05;148392.22;;;-1.10;98.65
49341;BME280;35209;51.050;13.678;2024-03-08T03:04:07;148419.06;;;-0.99;98.48
49341;BME280;35209;51.050;13.678;2024-03-08T03:09:09;148383.28;;;-1.14;98.54
49341;BME280;35209;51.050;13.678;2024-03-08T03:14:12;148356.38;;;-1.24;98.39
49341;BME280;35209;51.050;13.678;2024-03-08T03:19:13;148396.06;;;-1.09;98.95
49341;BME280;35209;51.050;13.678;2024-03-08T03:24:16;148376.84;;;-1.16;99.11
49341;BME280;35209;51.050;13.678;2024-03-08T03:29:19;148384.53;;;-1.13;99.18
49341;BME280;35209;51.050;13.678;2024-03-08T03:34:21;148410.09;;;-1.03;99.59
49341;BME280;35209;51.050;13.678;2024-03-08T03:39:24;148406.28;;;-1.05;99.19
49341;BME280;35209;51.050;13.678;2024-03-08T03:44:26;148417.78;;;-1.00;99.39
49341;BME280;35209;51.050;13.678;2024-03-08T03:49:28;148365.34;;;-1.21;100.00
49341;BME280;35209;51.050;13.678;2024-03-08T03:54:30;148339.78;;;-1.31;100.00
49341;BME280;35209;51.050;13.678;2024-03-08T03:59:32;148325.72;;;-1.37;100.00
49341;BME280;35209;51.050;13.678;2024-03-08T04:04:34;148341.06;;;-1.31;100.00
49341;BME280;35209;51.050;13.678;2024-03-08T04:09:36;148287.34;;;-1.52;100.00
49341;BME280;35209;51.050;13.678;2024-03-08T04:14:42;148305.28;;;-1.45;100.00
49341;BME280;35209;51.050;13.678;2024-03-08T04:19:44;148350.03;;;-1.27;100.00
49341;BME280;35209;51.050;13.678;2024-03-08T04:24:46;148318.06;;;-1.40;100.00
49341;BME280;35209;51.050;13.678;2024-03-08T04:29:47;148291.22;;;-1.50;100.00
49341;BME280;35209;51.050;13.678;2024-03-08T04:34:49;148293.75;;;-1.49;100.00
49341;BME280;35209;51.050;13.678;2024-03-08T04:39:51;148298.84;;;-1.47;100.00
49341;BME280;35209;51.050;13.678;2024-03-08T04:44:53;148293.75;;;-1.49;100.00
49341;BME280;35209;51.050;13.678;2024-03-08T04:49:55;148283.53;;;-1.54;100.00
49341;BME280;35209;51.050;13.678;2024-03-08T04:54:58;148311.63;;;-1.42;100.00
49341;BME280;35209;51.050;13.678;2024-03-08T05:00:01;148341.06;;;-1.31;100.00
49341;BME280;35209;51.050;13.678;2024-03-08T05:05:03;148301.41;;;-1.46;100.00
49341;BME280;35209;51.050;13.678;2024-03-08T05:10:07;148304.00;;;-1.45;100.00
49341;BME280;35209;51.050;13.678;2024-03-08T05:15:10;148238.78;;;-1.71;100.00
49341;BME280;35209;51.050;13.678;2024-03-08T05:20:12;148281.00;;;-1.55;100.00
49341;BME280;35209;51.050;13.678;2024-03-08T05:25:15;148286.09;;;-1.53;100.00
49341;BME280;35209;51.050;13.678;2024-03-08T05:30:17;148246.44;;;-1.68;100.00
49341;BME280;35209;51.050;13.678;2024-03-08T05:35:19;148259.25;;;-1.63;100.00
49341;BME280;35209;51.050;13.678;2024-03-08T05:40:20;148269.47;;;-1.59;100.00
49341;BME280;35209;51.050;13.678;2024-03-08T05:45:24;148320.59;;;-1.39;100.00
49341;BME280;35209;51.050;13.678;2024-03-08T05:50:26;148233.66;;;-1.73;100.00
49341;BME280;35209;51.050;13.678;2024-03-08T05:55:29;148223.44;;;-1.78;100.00
49341;BME280;35209;51.050;13.678;2024-03-08T06:00:31;148256.66;;;-1.64;100.00
49341;BME280;35209;51.050;13.678;2024-03-08T06:05:33;148274.56;;;-1.57;100.00
49341;BME280;35209;51.050;13.678;2024-03-08T06:10:35;148318.06;;;-1.40;100.00
49341;BME280;35209;51.050;13.678;2024-03-08T06:15:37;148444.63;;;-0.89;100.00
49341;BME280;35209;51.050;13.678;2024-03-08T06:20:39;148708.28;;;0.16;100.00
49341;BME280;35209;51.050;13.678;2024-03-08T06:25:45;148833.78;;;0.66;99.33
49341;BME280;35209;51.050;13.678;2024-03-08T06:30:47;148949.09;;;1.12;96.17
49341;BME280;35209;51.050;13.678;2024-03-08T06:35:49;149146.47;;;1.90;90.40
49341;BME280;35209;51.050;13.678;2024-03-08T06:40:51;149170.88;;;2.00;86.38
49341;BME280;35209;51.050;13.678;2024-03-08T06:45:53;149078.50;;;1.63;84.02
49341;BME280;35209;51.050;13.678;2024-03-08T06:50:55;149093.94;;;1.69;87.61
49341;BME280;35209;51.050;13.678;2024-03-08T06:55:58;149158.06;;;1.95;83.87
49341;BME280;35209;51.050;13.678;2024-03-08T07:01:00;149222.13;;;2.20;82.01
49341;BME280;35209;51.050;13.678;2024-03-08T07:06:06;149188.78;;;2.07;80.60
49341;BME280;35209;51.050;13.678;2024-03-08T07:11:09;149006.75;;;1.35;85.48
49341;BME280;35209;51.050;13.678;2024-03-08T07:16:11;148970.88;;;1.20;87.18
49341;BME280;35209;51.050;13.678;2024-03-08T07:21:13;149127.28;;;1.83;84.21
49341;BME280;35209;51.050;13.678;2024-03-08T07:26:15;149083.66;;;1.65;85.90
49341;BME280;35209;51.050;13.678;2024-03-08T07:31:18;149086.22;;;1.66;85.82
49341;BME280;35209;51.050;13.678;2024-03-08T07:36:46;149143.91;;;1.89;84.79
49341;BME280;35209;51.050;13.678;2024-03-08T07:41:48;149147.78;;;1.91;85.54
49341;BME280;35209;51.050;13.678;2024-03-08T07:46:49;149224.75;;;2.21;83.21
49341;BME280;35209;51.050;13.678;2024-03-08T07:51:53;149197.78;;;2.11;83.53
49341;BME280;35209;51.050;13.678;2024-03-08T07:56:55;149237.56;;;2.26;83.40
49341;BME280;35209;51.050;13.678;2024-03-08T08:01:57;149245.22;;;2.30;83.22
49341;BME280;35209;51.050;13.678;2024-03-08T08:06:59;149336.34;;;2.66;81.17
49341;BME280;35209;51.050;13.678;2024-03-08T08:12:01;149340.16;;;2.67;81.84
49341;BME280;35209;51.050;13.678;2024-03-08T08:17:05;149460.81;;;3.15;77.93
49341;BME280;35209;51.050;13.678;2024-03-08T08:22:10;149509.56;;;3.35;77.21
49341;BME280;35209;51.050;13.678;2024-03-08T08:27:13;149550.69;;;3.51;77.29
49341;BME280;35209;51.050;13.678;2024-03-08T08:32:17;149631.56;;;3.83;74.89
49341;BME280;35209;51.050;13.678;2024-03-08T08:37:19;149646.97;;;3.89;74.21
49341;BME280;35209;51.050;13.678;2024-03-08T08:42:24;149682.97;;;4.03;73.90
49341;BME280;35209;51.050;13.678;2024-03-08T08:47:26;149774.16;;;4.40;72.57
49341;BME280;35209;51.050;13.678;2024-03-08T08:52:28;149799.84;;;4.50;71.45
49341;BME280;35209;51.050;13.678;2024-03-08T08:57:30;149850.00;;;4.70;71.06
49341;BME280;35209;51.050;13.678;2024-03-08T09:02:34;149979.78;;;5.21;70.07
49341;BME280;35209;51.050;13.678;2024-03-08T09:07:36;150004.22;;;5.31;69.00
49341;BME280;35209;51.050;13.678;2024-03-08T09:12:39;149999.09;;;5.29;67.50
49341;BME280;35209;51.050;13.678;2024-03-08T09:17:41;150109.69;;;5.73;66.73
49341;BME280;35209;51.050;13.678;2024-03-08T09:22:44;150091.66;;;5.66;67.65
49341;BME280;35209;51.050;13.678;2024-03-08T09:27:46;150082.66;;;5.62;66.92
49341;BME280;35209;51.050;13.678;2024-03-08T09:32:48;150207.53;;;6.12;65.19
49341;BME280;35209;51.050;13.678;2024-03-08T09:37:53;150287.31;;;6.43;64.27
49341;BME280;35209;51.050;13.678;2024-03-08T09:42:55;150349.06;;;6.68;62.95
49341;BME280;35209;51.050;13.678;2024-03-08T09:47:57;150403.16;;;6.89;62.25
49341;BME280;35209;51.050;13.678;2024-03-08T09:52:59;150468.81;;;7.15;60.09
49341;BME280;35209;51.050;13.678;2024-03-08T09:58:02;150463.69;;;7.13;61.25
49341;BME280;35209;51.050;13.678;2024-03-08T10:03:34;150524.19;;;7.37;58.66
49341;BME280;35209;51.050;13.678;2024-03-08T10:08:36;150516.44;;;7.34;59.23
49341;BME280;35209;51.050;13.678;2024-03-08T10:13:39;150600.22;;;7.67;58.01
49341;BME280;35209;51.050;13.678;2024-03-08T10:18:42;150691.69;;;8.03;57.00
49341;BME280;35209;51.050;13.678;2024-03-08T10:23:44;150678.81;;;7.98;57.73
49341;BME280;35209;51.050;13.678;2024-03-08T10:28:50;150758.69;;;8.30;55.96
49341;BME280;35209;51.050;13.678;2024-03-08T10:33:52;150879.94;;;8.78;56.06
49341;BME280;35209;51.050;13.678;2024-03-08T10:38:56;151030.81;;;9.38;52.59
49341;BME280;35209;51.050;13.678;2024-03-08T10:44:26;151085.00;;;9.59;51.81
49341;BME280;35209;51.050;13.678;2024-03-08T10:49:38;151085.00;;;9.59;52.14
49341;BME280;35209;51.050;13.678;2024-03-08T10:54:41;151026.94;;;9.36;53.79
49341;BME280;35209;51.050;13.678;2024-03-08T10:59:47;151161.13;;;9.89;51.99
49341;BME280;35209;51.050;13.678;2024-03-08T11:04:51;151234.72;;;10.18;51.33
49341;BME280;35209;51.050;13.678;2024-03-08T11:09:55;151226.97;;;10.15;50.87
49341;BME280;35209;51.050;13.678;2024-03-08T11:15:02;151189.50;;;10.00;50.75
49341;BME280;35209;51.050;13.678;2024-03-08T11:20:12;151144.34;;;9.82;49.67
49341;BME280;35209;51.050;13.678;2024-03-08T11:30:32;151381.94;;;10.76;49.53
49341;BME280;35209;51.050;13.678;2024-03-08T11:35:34;151385.81;;;10.78;48.92
49341;BME280;35209;51.050;13.678;2024-03-08T11:40:36;151291.56;;;10.41;47.86
49341;BME280;35209;51.050;13.678;2024-03-08T11:45:38;151332.84;;;10.57;47.55
49341;BME280;35209;51.050;13.678;2024-03-08T11:50:42;151260.56;;;10.28;49.80
49341;BME280;35209;51.050;13.678;2024-03-08T11:55:45;151243.72;;;10.22;49.38
49341;BME280;35209;51.050;13.678;2024-03-08T12:00:48;151390.94;;;10.80;47.64
49341;BME280;35209;51.050;13.678;2024-03-08T12:05:57;151273.47;;;10.33;47.90
49341;BME280;35209;51.050;13.678;2024-03-08T12:11:01;151356.09;;;10.66;48.42
49341;BME280;35209;51.050;13.678;2024-03-08T12:16:05;151406.47;;;10.86;48.62
49341;BME280;35209;51.050;13.678;2024-03-08T12:21:08;151265.72;;;10.30;49.18
49341;BME280;35209;51.050;13.678;2024-03-08T12:31:16;151122.41;;;9.74;49.86
49341;BME280;35209;51.050;13.678;2024-03-08T12:36:27;151123.72;;;9.74;49.17
49341;BME280;35209;51.050;13.678;2024-03-08T12:41:30;151103.09;;;9.66;50.82
49341;BME280;35209;51.050;13.678;2024-03-08T12:46:31;151146.94;;;9.83;49.27
49341;BME280;35209;51.050;13.678;2024-03-08T12:51:34;151036.00;;;9.40;50.17
49341;BME280;35209;51.050;13.678;2024-03-08T12:56:36;151041.13;;;9.42;50.57
49341;BME280;35209;51.050;13.678;2024-03-08T13:01:38;151086.28;;;9.59;50.42
49341;BME280;35209;51.050;13.678;2024-03-08T13:06:41;151074.66;;;9.55;51.27
49341;BME280;35209;51.050;13.678;2024-03-08T13:11:43;151097.88;;;9.64;51.54
49341;BME280;35209;51.050;13.678;2024-03-08T13:16:44;151103.09;;;9.66;51.70
49341;BME280;35209;51.050;13.678;2024-03-08T13:21:50;151114.69;;;9.71;52.82
49341;BME280;35209;51.050;13.678;2024-03-08T13:26:52;151143.06;;;9.82;52.41
49341;BME280;35209;51.050;13.678;2024-03-08T13:31:54;151202.44;;;10.05;52.28
49341;BME280;35209;51.050;13.678;2024-03-08T13:36:58;151148.25;;;9.84;52.50
49341;BME280;35209;51.050;13.678;2024-03-08T13:42:02;151176.59;;;9.95;52.25
49341;BME280;35209;51.050;13.678;2024-03-08T13:47:06;151171.47;;;9.93;52.08
49341;BME280;35209;51.050;13.678;2024-03-08T13:52:09;151157.28;;;9.88;52.65
49341;BME280;35209;51.050;13.678;2024-03-08T13:57:11;151189.50;;;10.00;51.76
49341;BME280;35209;51.050;13.678;2024-03-08T14:02:13;151157.28;;;9.88;52.58
49341;BME280;35209;51.050;13.678;2024-03-08T14:07:15;151210.16;;;10.08;52.50
49341;BME280;35209;51.050;13.678;2024-03-08T14:12:18;151206.31;;;10.07;52.45
49341;BME280;35209;51.050;13.678;2024-03-08T14:17:22;151264.44;;;10.30;51.21
49341;BME280;35209;51.050;13.678;2024-03-08T14:22:25;151233.41;;;10.18;52.55
49341;BME280;35209;51.050;13.678;2024-03-08T14:27:27;151205.03;;;10.06;52.38
49341;BME280;35209;51.050;13.678;2024-03-08T14:32:30;151233.41;;;10.18;52.81
49341;BME280;35209;51.050;13.678;2024-03-08T14:37:32;151220.50;;;10.13;52.85
49341;BME280;35209;51.050;13.678;2024-03-08T14:42:33;151242.44;;;10.21;52.86
49341;BME280;35209;51.050;13.678;2024-03-08T14:47:35;151233.41;;;10.18;52.62
49341;BME280;35209;51.050;13.678;2024-03-08T14:52:37;151212.78;;;10.09;53.62
49341;BME280;35209;51.050;13.678;2024-03-08T14:57:42;151189.50;;;10.00;52.71
49341;BME280;35209;51.050;13.678;2024-03-08T15:02:47;151174.03;;;9.94;53.88
49341;BME280;35209;51.050;13.678;2024-03-08T15:07:49;151175.31;;;9.95;53.76
49341;BME280;35209;51.050;13.678;2024-03-08T15:12:51;151161.13;;;9.89;53.90
49341;BME280;35209;51.050;13.678;2024-03-08T15:17:57;151210.16;;;10.08;53.94
49341;BME280;35209;51.050;13.678;2024-03-08T15:23:00;151172.75;;;9.94;54.21
49341;BME280;35209;51.050;13.678;2024-03-08T15:28:02;151145.66;;;9.83;55.46
49341;BME280;35209;51.050;13.678;2024-03-08T15:33:06;151148.25;;;9.84;54.76
49341;BME280;35209;51.050;13.678;2024-03-08T15:38:12;151127.59;;;9.76;55.19
49341;BME280;35209;51.050;13.678;2024-03-08T15:43:14;151152.09;;;9.85;55.37
49341;BME280;35209;51.050;13.678;2024-03-08T15:48:17;151172.75;;;9.94;55.28
49341;BME280;35209;51.050;13.678;2024-03-08T15:53:19;151122.41;;;9.74;56.09
49341;BME280;35209;51.050;13.678;2024-03-08T15:58:21;151094.03;;;9.63;56.97
49341;BME280;35209;51.050;13.678;2024-03-08T16:03:23;151086.28;;;9.59;57.45
49341;BME280;35209;51.050;13.678;2024-03-08T16:08:25;151050.16;;;9.45;58.63
49341;BME280;35209;51.050;13.678;2024-03-08T16:13:27;150998.56;;;9.25;59.22
49341;BME280;35209;51.050;13.678;2024-03-08T16:18:29;150939.25;;;9.01;60.73
49341;BME280;35209;51.050;13.678;2024-03-08T16:23:32;150994.69;;;9.23;59.32
49341;BME280;35209;51.050;13.678;2024-03-08T16:28:34;150939.25;;;9.01;60.34
49341;BME280;35209;51.050;13.678;2024-03-08T16:33:44;150903.13;;;8.87;61.50
49341;BME280;35209;51.050;13.678;2024-03-08T16:38:46;150832.25;;;8.59;62.97
49341;BME280;35209;51.050;13.678;2024-03-08T16:43:50;150854.16;;;8.68;62.57
49341;BME280;35209;51.050;13.678;2024-03-08T16:48:52;150814.19;;;8.52;63.07
49341;BME280;35209;51.050;13.678;2024-03-08T16:53:53;150766.44;;;8.33;64.17
49341;BME280;35209;51.050;13.678;2024-03-08T16:58:56;150721.34;;;8.15;65.35
49341;BME280;35209;51.050;13.678;2024-03-08T17:03:58;150714.88;;;8.13;65.11
49341;BME280;35209;51.050;13.678;2024-03-08T17:09:02;150650.44;;;7.87;66.21
49341;BME280;35209;51.050;13.678;2024-03-08T17:14:04;150676.22;;;7.97;65.84
49341;BME280;35209;51.050;13.678;2024-03-08T17:19:06;150578.31;;;7.58;67.51
49341;BME280;35209;51.050;13.678;2024-03-08T17:24:09;150602.78;;;7.68;67.47
49341;BME280;35209;51.050;13.678;2024-03-08T17:29:13;150502.31;;;7.28;69.44
49341;BME280;35209;51.050;13.678;2024-03-08T17:34:16;150548.66;;;7.47;68.26
49341;BME280;35209;51.050;13.678;2024-03-08T17:39:20;150474.00;;;7.17;69.41
49341;BME280;35209;51.050;13.678;2024-03-08T17:44:28;150507.47;;;7.30;69.67
49341;BME280;35209;51.050;13.678;2024-03-08T17:49:33;150461.06;;;7.12;70.75
49341;BME280;35209;51.050;13.678;2024-03-08T17:54:36;150464.97;;;7.14;70.32
49341;BME280;35209;51.050;13.678;2024-03-08T17:59:38;150418.63;;;6.95;71.43
49341;BME280;35209;51.050;13.678;2024-03-08T18:04:40;150444.38;;;7.05;70.75
49341;BME280;35209;51.050;13.678;2024-03-08T18:09:42;150458.50;;;7.11;70.53
49341;BME280;35209;51.050;13.678;2024-03-08T18:14:45;150423.75;;;6.97;70.62
49341;BME280;35209;51.050;13.678;2024-03-08T18:19:47;150428.88;;;6.99;70.86
49341;BME280;35209;51.050;13.678;2024-03-08T18:24:52;150430.22;;;7.00;71.55
49341;BME280;35209;51.050;13.678;2024-03-08T18:29:53;150391.56;;;6.85;71.97
49341;BME280;35209;51.050;13.678;2024-03-08T18:34:55;150396.75;;;6.87;72.37
49341;BME280;35209;51.050;13.678;2024-03-08T18:39:57;150386.44;;;6.82;74.55
49341;BME280;35209;51.050;13.678;2024-03-08T18:45:00;150365.81;;;6.74;76.55
49341;BME280;35209;51.050;13.678;2024-03-08T18:50:12;150338.75;;;6.64;77.77
49341;BME280;35209;51.050;13.678;2024-03-08T18:55:16;150313.03;;;6.53;78.94
49341;BME280;35209;51.050;13.678;2024-03-08T19:00:24;150306.63;;;6.51;79.51
49341;BME280;35209;51.050;13.678;2024-03-08T19:05:32;150282.13;;;6.41;80.04
49341;BME280;35209;51.050;13.678;2024-03-08T19:10:36;150231.97;;;6.21;80.97
49341;BME280;35209;51.050;13.678;2024-03-08T19:15:40;150207.53;;;6.12;81.99
49341;BME280;35209;51.050;13.678;2024-03-08T19:20:43;150137.97;;;5.84;83.21
49341;BME280;35209;51.050;13.678;2024-03-08T19:25:45;150125.13;;;5.79;83.69
49341;BME280;35209;51.050;13.678;2024-03-08T19:30:46;150042.81;;;5.46;85.52
49341;BME280;35209;51.050;13.678;2024-03-08T19:35:49;150080.09;;;5.61;86.05
49341;BME280;35209;51.050;13.678;2024-03-08T19:40:51;150084.00;;;5.63;84.70
49341;BME280;35209;51.050;13.678;2024-03-08T19:45:55;150101.97;;;5.70;84.29
49341;BME280;35209;51.050;13.678;2024-03-08T19:50:57;150132.84;;;5.82;82.08
49341;BME280;35209;51.050;13.678;2024-03-08T19:56:06;150153.44;;;5.90;80.99
49341;BME280;35209;51.050;13.678;2024-03-08T20:01:08;150168.91;;;5.96;80.56
49341;BME280;35209;51.050;13.678;2024-03-08T20:06:11;150136.69;;;5.83;80.81
49341;BME280;35209;51.050;13.678;2024-03-08T20:11:13;150092.94;;;5.66;80.58
49341;BME280;35209;51.050;13.678;2024-03-08T20:16:16;150112.25;;;5.74;78.45
49341;BME280;35209;51.050;13.678;2024-03-08T20:21:19;150074.97;;;5.59;78.58
49341;BME280;35209;51.050;13.678;2024-03-08T20:26:21;150082.66;;;5.62;77.42
49341;BME280;35209;51.050;13.678;2024-03-08T20:31:24;150089.13;;;5.65;77.04
49341;BME280;35209;51.050;13.678;2024-03-08T20:36:26;150094.28;;;5.67;76.42
49341;BME280;35209;51.050;13.678;2024-03-08T20:41:28;150022.22;;;5.38;77.45
49341;BME280;35209;51.050;13.678;2024-03-08T20:46:30;150005.53;;;5.31;77.63
49341;BME280;35209;51.050;13.678;2024-03-08T20:51:31;149968.22;;;5.17;77.99
49341;BME280;35209;51.050;13.678;2024-03-08T20:56:33;149991.38;;;5.26;77.95
49341;BME280;35209;51.050;13.678;2024-03-08T21:01:36;149992.63;;;5.26;77.12
49341;BME280;35209;51.050;13.678;2024-03-08T21:06:43;149945.09;;;5.07;78.63
49341;BME280;35209;51.050;13.678;2024-03-08T21:11:45;149969.50;;;5.17;78.27
49341;BME280;35209;51.050;13.678;2024-03-08T21:16:47;149897.53;;;4.89;79.60
49341;BME280;35209;51.050;13.678;2024-03-08T21:21:49;149912.94;;;4.95;79.80
49341;BME280;35209;51.050;13.678;2024-03-08T21:26:50;149857.66;;;4.73;80.07
49341;BME280;35209;51.050;13.678;2024-03-08T21:31:56;149875.69;;;4.80;79.84
49341;BME280;35209;51.050;13.678;2024-03-08T21:36:58;149948.97;;;5.09;78.69
49341;BME280;35209;51.050;13.678;2024-03-08T21:42:02;149916.84;;;4.96;78.90
49341;BME280;35209;51.050;13.678;2024-03-08T21:47:05;149871.84;;;4.78;79.81
49341;BME280;35209;51.050;13.678;2024-03-08T21:52:07;149866.66;;;4.76;79.13
49341;BME280;35209;51.050;13.678;2024-03-08T21:57:09;149834.53;;;4.64;80.22
49341;BME280;35209;51.050;13.678;2024-03-08T22:02:12;149853.81;;;4.71;79.58
49341;BME280;35209;51.050;13.678;2024-03-08T22:07:13;149828.13;;;4.61;79.70
49341;BME280;35209;51.050;13.678;2024-03-08T22:12:15;149857.66;;;4.73;79.13
49341;BME280;35209;51.050;13.678;2024-03-08T22:17:17;149873.13;;;4.79;78.37
49341;BME280;35209;51.050;13.678;2024-03-08T22:22:24;149909.09;;;4.93;77.42
49341;BME280;35209;51.050;13.678;2024-03-08T22:27:26;149891.09;;;4.86;77.60
49341;BME280;35209;51.050;13.678;2024-03-08T22:32:28;149891.09;;;4.86;77.50
49341;BME280;35209;51.050;13.678;2024-03-08T22:37:30;149878.25;;;4.81;77.70
49341;BME280;35209;51.050;13.678;2024-03-08T22:42:32;149898.81;;;4.89;77.50
49341;BME280;35209;51.050;13.678;2024-03-08T22:47:33;149902.66;;;4.91;77.18
49341;BME280;35209;51.050;13.678;2024-03-08T22:52:35;149893.69;;;4.87;77.40
49341;BME280;35209;51.050;13.678;2024-03-08T22:57:38;149864.13;;;4.75;78.01
49341;BME280;35209;51.050;13.678;2024-03-08T23:02:42;149781.88;;;4.43;79.72
49341;BME280;35209;51.050;13.678;2024-03-08T23:07:44;149794.72;;;4.48;79.27
49341;BME280;35209;51.050;13.678;2024-03-08T23:12:46;149882.13;;;4.83;77.74
49341;BME280;35209;51.050;13.678;2024-03-08T23:17:48;149843.53;;;4.67;78.35
49341;BME280;35209;51.050;13.678;2024-03-08T23:22:54;149812.69;;;4.55;78.84
49341;BME280;35209;51.050;13.678;2024-03-08T23:27:58;149793.44;;;4.47;79.51
49341;BME280;35209;51.050;13.678;2024-03-08T23:33:07;149769.00;;;4.38;80.44
49341;BME280;35209;51.050;13.678;2024-03-08T23:38:10;149812.69;;;4.55;79.54
49341;BME280;35209;51.050;13.678;2024-03-08T23:43:12;149762.59;;;4.35;80.07
49341;BME280;35209;51.050;13.678;2024-03-08T23:48:14;149749.75;;;4.30;80.50
49341;BME280;35209;51.050;13.678;2024-03-08T23:53:16;149734.31;;;4.24;80.90
49341;BME280;35209;51.050;13.678;2024-03-08T23:58:19;149802.41;;;4.51;80.03
